createdAt,value
2022-10-13T00:00:49.812Z,20.60
2022-10-13T00:03:18.582Z,22.85
2022-10-13T00:05:48.057Z,25.30
2022-10-13T00:08:19.737Z,23.55
2022-10-13T00:10:49.614Z,22.85
2022-10-13T00:13:21.560Z,21.33
2022-10-13T00:15:50.156Z,24.63
2022-10-13T00:18:18.632Z,20.85
2022-10-13T00:20:48.127Z,33.00
2022-10-13T00:23:18.417Z,22.10
2022-10-13T00:25:48.131Z,26.80
2022-10-13T00:28:16.765Z,25.23
2022-10-13T00:30:45.250Z,26.67
2022-10-13T00:33:14.212Z,23.17
2022-10-13T00:35:43.303Z,28.30
2022-10-13T00:38:12.680Z,21.20
2022-10-13T00:40:49.211Z,24.98
2022-10-13T00:43:21.422Z,26.55
2022-10-13T00:45:50.977Z,29.13
2022-10-13T00:48:20.867Z,24.63
2022-10-13T00:50:50.187Z,24.55
2022-10-13T00:53:20.259Z,25.40
2022-10-13T00:55:50.293Z,21.95
2022-10-13T00:58:20.322Z,21.48
2022-10-13T01:00:50.299Z,23.23
2022-10-13T01:03:18.909Z,21.98
2022-10-13T01:05:47.430Z,21.67
2022-10-13T01:08:16.710Z,20.85
2022-10-13T01:10:48.989Z,23.25
2022-10-13T01:13:22.244Z,24.08
2022-10-13T01:15:53.878Z,21.80
2022-10-13T01:18:24.145Z,24.20
2022-10-13T01:20:57.758Z,26.77
2022-10-13T01:23:34.129Z,21.00
2022-10-13T01:26:18.219Z,22.77
2022-10-13T01:29:01.558Z,24.52
2022-10-13T01:31:35.591Z,23.95
2022-10-13T01:34:08.090Z,23.17
2022-10-13T01:36:40.227Z,24.38
2022-10-13T01:39:15.693Z,23.58
2022-10-13T01:41:47.278Z,24.90
2022-10-13T01:44:17.275Z,25.35
2022-10-13T01:46:56.094Z,23.33
2022-10-13T01:49:26.481Z,22.38
2022-10-13T01:51:56.147Z,26.20
2022-10-13T01:54:24.478Z,25.33
2022-10-13T01:56:56.049Z,23.40
2022-10-13T01:59:25.896Z,24.38
2022-10-13T02:01:58.944Z,26.92
2022-10-13T02:04:30.445Z,25.00
2022-10-13T02:07:01.988Z,24.55
2022-10-13T02:09:35.153Z,26.00
2022-10-13T02:12:06.061Z,25.13
2022-10-13T02:14:36.464Z,27.73
2022-10-13T02:17:07.020Z,28.63
2022-10-13T02:19:37.387Z,23.25
2022-10-13T02:22:06.576Z,30.27
2022-10-13T02:24:35.989Z,25.38
2022-10-13T02:27:06.854Z,26.33
2022-10-13T02:29:35.165Z,23.80
2022-10-13T02:32:03.599Z,25.05
2022-10-13T02:34:33.267Z,23.73
2022-10-13T02:37:01.565Z,23.50
2022-10-13T02:39:29.862Z,23.55
2022-10-13T02:41:58.703Z,24.08
2022-10-13T02:44:27.066Z,27.13
2022-10-13T02:46:55.392Z,26.08
2022-10-13T02:49:23.684Z,24.05
2022-10-13T02:51:54.231Z,20.02
2022-10-13T02:54:22.541Z,25.00
2022-10-13T02:56:50.864Z,20.50
2022-10-13T02:59:19.245Z,21.13
2022-10-13T03:01:47.541Z,24.95
2022-10-13T03:04:15.890Z,28.25
2022-10-13T03:06:44.444Z,20.73
2022-10-13T03:09:16.507Z,23.85
2022-10-13T03:11:45.273Z,26.98
2022-10-13T03:14:13.592Z,24.40
2022-10-13T03:16:42.006Z,22.60
2022-10-13T03:19:11.651Z,26.08
2022-10-13T03:21:40.031Z,21.15
2022-10-13T03:24:08.512Z,22.13
2022-10-13T03:26:38.174Z,25.88
2022-10-13T03:29:06.527Z,23.83
2022-10-13T03:31:35.381Z,32.88
2022-10-13T03:34:04.009Z,29.40
2022-10-13T03:36:32.318Z,28.13
2022-10-13T03:39:00.607Z,27.85
2022-10-13T03:41:28.951Z,28.48
2022-10-13T03:43:58.629Z,31.00
2022-10-13T03:46:29.158Z,30.73
2022-10-13T03:48:59.517Z,30.35
2022-10-13T03:51:27.978Z,29.33
2022-10-13T03:53:56.275Z,30.23
2022-10-13T03:56:25.967Z,36.65
2022-10-13T03:58:55.337Z,38.28
2022-10-13T04:01:25.923Z,28.48
2022-10-13T04:03:55.471Z,31.00
2022-10-13T04:06:24.159Z,32.40
2022-10-13T04:08:52.558Z,30.17
2022-10-13T04:11:21.420Z,30.20
2022-10-13T04:13:53.173Z,32.78
2022-10-13T04:16:23.429Z,33.33
2022-10-13T04:18:55.221Z,26.25
2022-10-13T04:21:24.168Z,35.90
2022-10-13T04:23:52.523Z,38.05
2022-10-13T04:26:21.907Z,26.88
2022-10-13T04:28:50.805Z,29.50
2022-10-13T04:31:21.897Z,30.65
2022-10-13T04:33:50.648Z,24.65
2022-10-13T04:36:20.957Z,31.42
2022-10-13T04:38:51.729Z,25.33
2022-10-13T04:41:20.525Z,29.85
2022-10-13T04:43:49.707Z,26.98
2022-10-13T04:46:19.350Z,23.13
2022-10-13T04:48:48.008Z,21.80
2022-10-13T04:51:17.138Z,23.50
2022-10-13T04:53:47.115Z,23.55
2022-10-13T04:56:16.463Z,20.52
2022-10-13T04:58:45.603Z,21.90
2022-10-13T05:01:20.529Z,24.48
2022-10-13T05:03:52.405Z,24.20
2022-10-13T05:06:21.607Z,24.38
2022-10-13T05:08:52.542Z,20.92
2022-10-13T05:11:20.959Z,22.85
2022-10-13T05:13:49.310Z,26.67
2022-10-13T05:16:18.563Z,23.13
2022-10-13T05:18:47.331Z,20.63
2022-10-13T05:21:16.466Z,26.13
2022-10-13T05:23:45.275Z,25.65
2022-10-13T05:26:15.815Z,22.67
2022-10-13T05:28:44.447Z,26.20
2022-10-13T05:31:13.373Z,27.02
2022-10-13T05:33:42.121Z,23.30
2022-10-13T05:36:12.300Z,28.98
2022-10-13T05:38:40.721Z,24.98
2022-10-13T05:41:09.695Z,28.80
2022-10-13T05:43:40.046Z,24.77
2022-10-13T05:46:08.790Z,24.45
2022-10-13T05:48:38.068Z,27.75
2022-10-13T05:51:08.088Z,22.70
2022-10-13T05:53:39.232Z,29.50
2022-10-13T05:56:10.343Z,30.35
2022-10-13T05:58:43.627Z,25.10
2022-10-13T06:01:13.475Z,31.13
2022-10-13T06:03:42.960Z,32.90
2022-10-13T06:06:11.335Z,31.25
2022-10-13T06:08:39.915Z,28.65
2022-10-13T06:11:08.887Z,26.55
2022-10-13T06:13:37.204Z,28.85
2022-10-13T06:16:07.309Z,35.55
2022-10-13T06:18:35.677Z,32.92
2022-10-13T06:21:04.214Z,32.30
2022-10-13T06:23:32.523Z,34.45
2022-10-13T06:26:00.975Z,33.38
2022-10-13T06:28:31.308Z,27.75
2022-10-13T06:30:59.860Z,28.70
2022-10-13T06:33:29.549Z,35.60
2022-10-13T06:35:57.836Z,27.38
2022-10-13T06:38:26.228Z,28.58
2022-10-13T06:40:54.551Z,29.38
2022-10-13T06:43:30.967Z,25.33
2022-10-13T06:46:04.522Z,30.08
2022-10-13T06:48:34.201Z,24.85
2022-10-13T06:51:03.059Z,26.58
2022-10-13T06:53:31.392Z,26.33
2022-10-13T06:56:00.133Z,25.50
2022-10-13T06:58:28.539Z,28.48
2022-10-13T07:00:57.426Z,26.48
2022-10-13T07:03:26.033Z,23.48
2022-10-13T07:05:56.116Z,24.73
2022-10-13T07:08:24.674Z,28.20
2022-10-13T07:10:52.984Z,27.23
2022-10-13T07:15:50.543Z,28.38
2022-10-13T07:18:18.922Z,32.22
2022-10-13T07:20:47.240Z,29.17
2022-10-13T07:23:16.895Z,33.25
2022-10-13T07:25:45.514Z,34.33
2022-10-13T07:28:13.927Z,32.28
2022-10-13T07:30:42.321Z,28.08
2022-10-13T07:33:10.616Z,26.73
2022-10-13T07:35:39.741Z,26.85
2022-10-13T07:38:08.500Z,24.73
2022-10-13T07:40:38.140Z,27.63
2022-10-13T07:43:06.469Z,25.55
2022-10-13T07:45:34.850Z,26.20
2022-10-13T07:48:03.255Z,30.60
2022-10-13T07:50:31.655Z,28.88
2022-10-13T07:53:00.004Z,30.60
2022-10-13T07:55:28.387Z,29.33
2022-10-13T07:57:58.125Z,28.40
2022-10-13T08:00:26.499Z,32.72
2022-10-13T08:02:54.971Z,28.73
2022-10-13T08:05:23.376Z,26.98
2022-10-13T08:07:54.706Z,32.30
2022-10-13T08:10:26.589Z,28.27
2022-10-13T08:12:55.036Z,33.22
2022-10-13T08:15:24.744Z,31.42
2022-10-13T08:17:53.095Z,30.80
2022-10-13T08:20:21.535Z,62.83
2022-10-13T08:22:49.960Z,31.88
2022-10-13T08:25:18.340Z,31.63
2022-10-13T08:27:51.572Z,29.48
2022-10-13T08:30:21.024Z,33.00
2022-10-13T08:32:50.833Z,31.60
2022-10-13T08:35:19.220Z,30.17
2022-10-13T08:37:47.585Z,31.05
2022-10-13T08:40:18.316Z,31.92
2022-10-13T08:42:47.439Z,31.80
2022-10-13T08:45:40.416Z,32.28
2022-10-13T08:48:13.422Z,44.60
2022-10-13T08:50:44.037Z,35.20
2022-10-13T08:53:13.908Z,32.20
2022-10-13T08:55:49.532Z,29.98
2022-10-13T08:58:20.697Z,29.05
2022-10-13T09:00:49.114Z,45.08
2022-10-13T09:03:23.784Z,32.30
2022-10-13T09:05:59.740Z,32.40
2022-10-13T09:08:29.579Z,28.92
2022-10-13T09:10:59.610Z,29.42
2022-10-13T09:13:28.043Z,36.97
2022-10-13T09:15:56.422Z,32.00
2022-10-13T09:18:31.790Z,31.30
2022-10-13T09:21:17.548Z,28.20
2022-10-13T09:23:45.907Z,31.08
2022-10-13T09:26:18.342Z,31.25
2022-10-13T09:28:47.912Z,32.20
2022-10-13T09:31:18.046Z,30.75
2022-10-13T09:33:58.256Z,41.38
2022-10-13T09:36:27.874Z,34.00
2022-10-13T09:39:11.622Z,34.65
2022-10-13T09:41:41.672Z,37.35
2022-10-13T09:44:12.750Z,39.15
2022-10-13T09:46:47.734Z,37.47
2022-10-13T09:49:31.916Z,32.17
2022-10-13T09:52:02.744Z,33.83
2022-10-13T09:54:38.534Z,32.83
2022-10-13T09:57:11.099Z,36.85
2022-10-13T09:59:41.514Z,34.65
2022-10-13T10:02:19.488Z,37.92
2022-10-13T10:04:51.594Z,31.00
2022-10-13T10:07:22.290Z,38.90
2022-10-13T10:09:53.152Z,36.60
2022-10-13T10:12:27.679Z,33.90
2022-10-13T10:14:56.237Z,35.60
2022-10-13T10:17:27.958Z,39.47
2022-10-13T10:20:08.127Z,35.58
2022-10-13T10:22:39.261Z,33.55
2022-10-13T10:25:16.157Z,32.03
2022-10-13T10:27:47.306Z,33.83
2022-10-13T10:30:17.035Z,41.88
2022-10-13T10:32:48.956Z,39.97
2022-10-13T10:35:23.807Z,39.22
2022-10-13T10:37:58.841Z,36.33
2022-10-13T10:40:34.098Z,32.80
2022-10-13T10:43:09.401Z,34.63
2022-10-13T10:45:39.202Z,32.40
2022-10-13T10:48:09.513Z,32.40
2022-10-13T10:50:39.263Z,30.83
2022-10-13T10:53:08.803Z,32.97
2022-10-13T10:55:39.986Z,32.03
2022-10-13T10:58:13.760Z,28.23
2022-10-13T11:00:47.150Z,33.67
2022-10-13T11:03:19.820Z,30.40
2022-10-13T11:06:02.937Z,31.13
2022-10-13T11:08:32.403Z,34.03
2022-10-13T11:11:24.722Z,27.65
2022-10-13T11:13:57.100Z,31.98
2022-10-13T11:16:30.160Z,28.35
2022-10-13T11:19:06.521Z,27.55
2022-10-13T11:21:53.394Z,29.63
2022-10-13T11:24:40.405Z,26.50
2022-10-13T11:27:27.709Z,26.58
2022-10-13T11:29:57.880Z,27.38
2022-10-13T11:32:55.122Z,23.80
2022-10-13T11:35:27.945Z,25.35
2022-10-13T11:38:12.648Z,26.17
2022-10-13T11:40:49.199Z,24.25
2022-10-13T11:43:28.029Z,27.27
2022-10-13T11:46:10.190Z,26.00
2022-10-13T11:48:53.821Z,28.65
2022-10-13T11:51:30.845Z,26.42
2022-10-13T11:54:02.148Z,26.30
2022-10-13T11:56:38.267Z,23.38
2022-10-13T11:59:19.903Z,22.83
2022-10-13T12:01:48.308Z,20.85
2022-10-13T12:04:17.099Z,21.23
2022-10-13T12:06:47.570Z,33.10
2022-10-13T12:09:19.092Z,27.30
2022-10-13T12:11:47.576Z,21.58
2022-10-13T12:14:24.013Z,17.55
2022-10-13T12:19:30.184Z,17.20
2022-10-13T12:21:59.392Z,17.50
2022-10-13T12:24:29.002Z,16.90
2022-10-13T12:26:57.854Z,16.95
2022-10-13T12:29:32.139Z,20.85
2022-10-13T12:32:01.904Z,18.08
2022-10-13T12:34:32.170Z,18.02
2022-10-13T12:37:02.267Z,17.42
2022-10-13T12:39:32.480Z,19.08
2022-10-13T12:42:02.597Z,16.38
2022-10-13T12:44:33.153Z,21.00
2022-10-13T12:47:03.624Z,18.27
2022-10-13T12:49:32.792Z,19.38
2022-10-13T12:52:06.823Z,17.70
2022-10-13T12:54:36.152Z,19.80
2022-10-13T12:57:06.485Z,18.85
2022-10-13T12:59:42.639Z,20.50
2022-10-13T13:02:21.307Z,14.25
2022-10-13T13:04:49.833Z,16.02
2022-10-13T13:07:28.988Z,16.02
2022-10-13T13:10:14.993Z,15.77
2022-10-13T13:12:43.689Z,20.50
2022-10-13T13:15:32.734Z,24.35
2022-10-13T13:18:20.703Z,14.57
2022-10-13T13:20:48.985Z,19.35
2022-10-13T13:23:19.212Z,21.90
2022-10-13T13:25:47.527Z,22.15
2022-10-13T13:28:16.828Z,15.38
2022-10-13T13:30:46.762Z,20.98
2022-10-13T13:33:15.107Z,17.05
2022-10-13T13:35:45.435Z,20.40
2022-10-13T13:38:13.788Z,13.82
2022-10-13T13:40:42.399Z,20.73
2022-10-13T13:43:14.192Z,19.10
2022-10-13T13:45:42.618Z,15.55
2022-10-13T13:48:13.824Z,16.02
2022-10-13T13:50:42.224Z,14.45
2022-10-13T13:53:10.835Z,20.20
2022-10-13T13:55:39.368Z,18.17
2022-10-13T13:58:08.404Z,19.10
2022-10-13T14:00:36.790Z,15.20
2022-10-13T14:03:05.509Z,24.95
2022-10-13T14:05:35.218Z,18.52
2022-10-13T14:08:03.593Z,21.38
2022-10-13T14:10:31.959Z,16.27
2022-10-13T14:13:00.343Z,17.83
2022-10-13T14:15:30.045Z,20.00
2022-10-13T14:17:58.692Z,16.52
2022-10-13T14:20:28.084Z,27.83
2022-10-13T14:22:57.814Z,16.42
2022-10-13T14:25:26.199Z,19.45
2022-10-13T14:27:54.566Z,24.50
2022-10-13T14:30:22.913Z,16.23
2022-10-13T14:32:51.277Z,21.20
2022-10-13T14:35:19.651Z,21.55
2022-10-13T14:37:48.004Z,30.70
2022-10-13T14:40:17.903Z,21.60
2022-10-13T14:42:46.301Z,22.05
2022-10-13T14:45:17.822Z,17.38
2022-10-13T14:47:46.178Z,26.58
2022-10-13T14:50:14.558Z,24.48
2022-10-13T14:52:43.245Z,21.65
2022-10-13T14:55:11.643Z,23.13
2022-10-13T14:57:41.675Z,21.17
2022-10-13T15:00:10.761Z,22.90
2022-10-13T15:02:39.158Z,18.67
2022-10-13T15:05:08.390Z,19.45
2022-10-13T15:07:40.821Z,22.92
2022-10-13T15:10:09.992Z,20.23
2022-10-13T15:12:38.571Z,16.73
2022-10-13T15:15:08.955Z,25.20
2022-10-13T15:17:37.902Z,21.70
2022-10-13T15:20:06.840Z,22.92
2022-10-13T15:22:35.229Z,20.10
2022-10-13T15:25:04.411Z,20.85
2022-10-13T15:27:32.841Z,22.02
2022-10-13T15:30:01.217Z,31.00
2022-10-13T15:32:30.954Z,20.70
2022-10-13T15:35:02.244Z,18.80
2022-10-13T15:37:31.568Z,22.58
2022-10-13T15:40:00.230Z,22.10
2022-10-13T15:42:28.683Z,32.15
2022-10-13T15:45:09.329Z,19.15
2022-10-13T15:47:40.422Z,25.63
2022-10-13T15:50:10.066Z,25.15
2022-10-13T15:52:41.525Z,22.85
2022-10-13T15:55:10.319Z,28.83
2022-10-13T15:57:38.976Z,23.90
2022-10-13T16:00:08.177Z,27.63
2022-10-13T16:02:45.122Z,22.13
2022-10-13T16:05:14.132Z,21.67
2022-10-13T16:07:42.874Z,22.35
2022-10-13T16:10:13.209Z,28.17
2022-10-13T16:12:45.436Z,24.35
2022-10-13T16:15:17.315Z,22.23
2022-10-13T16:17:47.204Z,26.13
2022-10-13T16:20:15.919Z,24.77
2022-10-13T16:22:44.280Z,25.35
2022-10-13T16:25:12.937Z,30.75
2022-10-13T16:27:44.216Z,28.85
2022-10-13T16:30:13.815Z,29.08
2022-10-13T16:32:42.302Z,26.23
2022-10-13T16:35:12.301Z,29.30
2022-10-13T16:37:40.671Z,25.38
2022-10-13T16:40:09.679Z,25.58
2022-10-13T16:42:38.157Z,27.50
2022-10-13T16:45:07.500Z,29.85
2022-10-13T16:47:36.078Z,30.90
2022-10-13T16:50:06.393Z,28.05
2022-10-13T16:52:36.386Z,31.35
2022-10-13T16:55:05.033Z,31.25
2022-10-13T16:57:33.524Z,28.35
2022-10-13T17:00:02.166Z,33.63
2022-10-13T17:02:32.721Z,27.35
2022-10-13T17:05:01.075Z,34.40
2022-10-13T17:07:29.505Z,30.30
2022-10-13T17:09:59.838Z,30.60
2022-10-13T17:12:28.230Z,27.95
2022-10-13T17:14:56.574Z,31.17
2022-10-13T17:17:24.928Z,28.25
2022-10-13T17:19:53.293Z,30.90
2022-10-13T17:22:21.755Z,33.85
2022-10-13T17:24:50.111Z,28.48
2022-10-13T17:27:20.139Z,33.88
2022-10-13T17:29:48.849Z,27.50
2022-10-13T17:32:17.205Z,35.60
2022-10-13T17:34:45.753Z,33.30
2022-10-13T17:37:14.991Z,33.58
2022-10-13T17:39:43.355Z,31.73
2022-10-13T17:42:11.726Z,29.92
2022-10-13T17:44:42.605Z,28.40
2022-10-13T17:47:12.912Z,30.92
2022-10-13T17:49:41.427Z,26.77
2022-10-13T17:52:11.722Z,33.45
2022-10-13T17:54:40.100Z,36.20
2022-10-13T17:57:08.511Z,30.58
2022-10-13T17:59:36.999Z,25.67
2022-10-13T18:02:06.776Z,27.77
2022-10-13T18:04:35.199Z,31.92
2022-10-13T18:07:03.585Z,32.97
2022-10-13T18:09:31.990Z,34.60
2022-10-13T18:12:00.398Z,39.33
2022-10-13T18:14:29.072Z,32.25
2022-10-13T18:16:57.552Z,35.75
2022-10-13T18:19:27.270Z,37.40
2022-10-13T18:21:55.673Z,36.47
2022-10-13T18:24:25.051Z,31.65
2022-10-13T18:26:54.566Z,40.53
2022-10-13T18:29:25.311Z,34.78
2022-10-13T18:31:56.111Z,39.35
2022-10-13T18:34:24.690Z,32.70
2022-10-13T18:36:55.858Z,33.17
2022-10-13T18:39:25.637Z,33.03
2022-10-13T18:41:54.500Z,36.08
2022-10-13T18:44:22.971Z,36.47
2022-10-13T18:46:52.017Z,39.55
2022-10-13T18:49:23.023Z,33.30
2022-10-13T18:51:51.789Z,36.10
2022-10-13T18:54:21.717Z,35.63
2022-10-13T18:56:50.299Z,33.35
2022-10-13T18:59:18.628Z,38.80
2022-10-13T19:01:47.492Z,37.30
2022-10-13T19:04:16.840Z,40.78
2022-10-13T19:06:46.314Z,36.88
2022-10-13T19:09:17.222Z,35.33
2022-10-13T19:11:47.356Z,35.25
2022-10-13T19:14:17.824Z,34.47
2022-10-13T19:16:46.416Z,37.95
2022-10-13T19:19:15.061Z,33.15
2022-10-13T19:21:43.763Z,34.35
2022-10-13T19:24:12.762Z,35.38
2022-10-13T19:26:41.150Z,35.45
2022-10-13T19:29:11.778Z,39.97
2022-10-13T19:31:41.368Z,39.75
2022-10-13T19:34:10.107Z,36.53
2022-10-13T19:36:39.828Z,40.38
2022-10-13T19:39:11.721Z,41.50
2022-10-13T19:41:40.393Z,37.85
2022-10-13T19:44:08.750Z,39.40
2022-10-13T19:46:41.620Z,39.40
2022-10-13T19:49:10.669Z,34.85
2022-10-13T19:51:43.591Z,34.47
2022-10-13T19:54:12.196Z,35.85
2022-10-13T19:56:46.464Z,36.13
2022-10-13T19:59:15.349Z,34.13
2022-10-13T20:01:45.055Z,32.03
2022-10-13T20:04:18.278Z,33.25
2022-10-13T20:06:46.799Z,28.55
2022-10-13T20:09:15.120Z,34.35
2022-10-13T20:11:45.381Z,29.90
2022-10-13T20:14:14.032Z,30.17
2022-10-13T20:16:42.350Z,29.83
2022-10-13T20:19:13.279Z,32.10
2022-10-13T20:21:43.272Z,35.75
2022-10-13T20:24:12.955Z,35.58
2022-10-13T20:26:41.630Z,27.77
2022-10-13T20:29:10.021Z,28.30
2022-10-13T20:31:38.372Z,29.50
2022-10-13T20:34:06.661Z,27.92
2022-10-13T20:36:39.049Z,30.95
2022-10-13T20:39:08.695Z,25.30
2022-10-13T20:41:37.417Z,28.70
2022-10-13T20:44:05.864Z,27.40
2022-10-13T20:46:34.903Z,23.08
2022-10-13T20:49:12.707Z,24.15
2022-10-13T20:51:43.642Z,29.20
2022-10-13T20:54:12.383Z,22.73
2022-10-13T20:56:40.718Z,24.90
2022-10-13T20:59:10.299Z,29.42
2022-10-13T21:01:39.012Z,21.38
2022-10-13T21:04:07.465Z,20.17
2022-10-13T21:06:35.994Z,20.92
2022-10-13T21:09:06.401Z,23.00
2022-10-13T21:11:34.778Z,21.90
2022-10-13T21:14:06.399Z,19.90
2022-10-13T21:16:34.755Z,21.83
2022-10-13T21:19:03.314Z,19.27
2022-10-13T21:21:32.427Z,19.50
2022-10-13T21:24:01.497Z,19.02
2022-10-13T21:26:31.608Z,17.08
2022-10-13T21:29:00.177Z,25.20
2022-10-13T21:31:29.401Z,19.52
2022-10-13T21:33:58.145Z,20.90
2022-10-13T21:36:27.947Z,24.13
2022-10-13T21:38:57.626Z,29.02
2022-10-13T21:41:26.842Z,28.25
2022-10-13T21:44:01.014Z,27.80
2022-10-13T21:46:35.022Z,18.63
2022-10-13T21:49:08.562Z,16.90
2022-10-13T21:51:40.413Z,19.30
2022-10-13T21:54:11.262Z,20.33
2022-10-13T21:56:42.688Z,17.75
2022-10-13T21:59:16.622Z,24.17
2022-10-13T22:01:45.732Z,20.10
2022-10-13T22:04:15.839Z,22.45
2022-10-13T22:06:44.208Z,25.05
2022-10-13T22:09:12.828Z,19.33
2022-10-13T22:11:43.816Z,18.10
2022-10-13T22:14:13.731Z,24.65
2022-10-13T22:16:43.033Z,22.65
2022-10-13T22:19:13.074Z,23.05
2022-10-13T22:21:42.562Z,24.38
2022-10-13T22:24:14.277Z,22.30
2022-10-13T22:26:43.625Z,20.80
2022-10-13T22:29:13.609Z,28.17
2022-10-13T22:31:43.400Z,25.00
2022-10-13T22:34:12.844Z,28.08
2022-10-13T22:36:47.850Z,22.80
2022-10-13T22:39:17.005Z,25.30
2022-10-13T22:41:49.765Z,23.38
2022-10-13T22:44:18.257Z,28.02
2022-10-13T22:46:48.168Z,24.23
2022-10-13T22:49:16.493Z,23.77
2022-10-13T22:51:45.061Z,23.52
2022-10-13T22:54:13.377Z,25.88
2022-10-13T22:56:42.418Z,22.17
2022-10-13T22:59:11.348Z,22.77
2022-10-13T23:01:39.783Z,25.50
2022-10-13T23:04:09.648Z,25.40
2022-10-13T23:07:03.256Z,25.48
2022-10-13T23:09:31.762Z,32.25
2022-10-13T23:12:00.238Z,26.08
2022-10-13T23:14:31.263Z,22.98
2022-10-13T23:16:59.903Z,25.98
2022-10-13T23:19:30.479Z,25.70
2022-10-13T23:21:59.831Z,28.17
2022-10-13T23:24:28.498Z,30.27
2022-10-13T23:27:00.704Z,33.33
2022-10-13T23:29:29.189Z,27.45
2022-10-13T23:31:57.747Z,24.17
2022-10-13T23:34:28.318Z,26.05
2022-10-13T23:36:58.650Z,27.25
2022-10-13T23:39:27.225Z,30.67
2022-10-13T23:41:55.902Z,25.40
2022-10-13T23:44:24.305Z,26.30
2022-10-13T23:46:52.748Z,30.67
2022-10-13T23:49:22.719Z,29.23
2022-10-13T23:51:51.229Z,28.17
2022-10-13T23:54:20.945Z,29.33
2022-10-13T23:56:49.256Z,28.95
2022-10-13T23:59:17.564Z,29.60
